sensor_id;sensor_type;location;lat;lon;timestamp;temperature;humidity
7562;DHT22;3822;48.784;9.174;2023-07-24T00:00:26;24.00;65.90
7562;DHT22;3822;48.784;9.174;2023-07-24T00:02:52;24.00;66.50
7562;DHT22;3822;48.784;9.174;2023-07-24T00:05:19;23.90;67.30
7562;DHT22;3822;48.784;9.174;2023-07-24T00:07:50;23.90;67.80
7562;DHT22;3822;48.784;9.174;2023-07-24T00:10:16;23.90;68.40
7562;DHT22;3822;48.784;9.174;2023-07-24T00:12:45;23.90;68.80
7562;DHT22;3822;48.784;9.174;2023-07-24T00:15:11;23.80;68.90
7562;DHT22;3822;48.784;9.174;2023-07-24T00:17:37;23.70;69.40
7562;DHT22;3822;48.784;9.174;2023-07-24T00:20:04;23.70;69.20
7562;DHT22;3822;48.784;9.174;2023-07-24T00:22:31;23.70;69.40
7562;DHT22;3822;48.784;9.174;2023-07-24T00:25:00;23.60;69.90
7562;DHT22;3822;48.784;9.174;2023-07-24T00:27:26;23.60;71.20
7562;DHT22;3822;48.784;9.174;2023-07-24T00:29:53;23.60;71.10
7562;DHT22;3822;48.784;9.174;2023-07-24T00:32:19;23.60;71.80
7562;DHT22;3822;48.784;9.174;2023-07-24T00:34:46;23.60;72.30
7562;DHT22;3822;48.784;9.174;2023-07-24T00:37:12;23.60;72.60
7562;DHT22;3822;48.784;9.174;2023-07-24T00:39:40;23.60;73.10
7562;DHT22;3822;48.784;9.174;2023-07-24T00:42:09;23.50;73.30
7562;DHT22;3822;48.784;9.174;2023-07-24T00:44:35;23.50;73.60
7562;DHT22;3822;48.784;9.174;2023-07-24T00:47:02;23.50;73.60
7562;DHT22;3822;48.784;9.174;2023-07-24T00:49:31;23.50;73.80
7562;DHT22;3822;48.784;9.174;2023-07-24T00:51:57;23.40;73.80
7562;DHT22;3822;48.784;9.174;2023-07-24T00:54:25;23.40;74.00
7562;DHT22;3822;48.784;9.174;2023-07-24T00:56:54;23.40;74.30
7562;DHT22;3822;48.784;9.174;2023-07-24T00:59:20;23.30;74.50
7562;DHT22;3822;48.784;9.174;2023-07-24T01:01:47;23.30;74.70
7562;DHT22;3822;48.784;9.174;2023-07-24T01:04:14;23.30;75.10
7562;DHT22;3822;48.784;9.174;2023-07-24T01:06:40;23.30;75.50
7562;DHT22;3822;48.784;9.174;2023-07-24T01:09:07;23.20;75.90
7562;DHT22;3822;48.784;9.174;2023-07-24T01:11:36;23.20;76.60
7562;DHT22;3822;48.784;9.174;2023-07-24T01:16:50;23.20;77.60
7562;DHT22;3822;48.784;9.174;2023-07-24T01:22:12;23.10;78.40
7562;DHT22;3822;48.784;9.174;2023-07-24T01:27:28;23.00;79.70
7562;DHT22;3822;48.784;9.174;2023-07-24T01:29:54;22.90;80.30
7562;DHT22;3822;48.784;9.174;2023-07-24T01:32:20;22.90;80.80
7562;DHT22;3822;48.784;9.174;2023-07-24T01:34:47;22.90;81.30
7562;DHT22;3822;48.784;9.174;2023-07-24T01:37:16;22.80;81.30
7562;DHT22;3822;48.784;9.174;2023-07-24T01:39:43;22.80;81.30
7562;DHT22;3822;48.784;9.174;2023-07-24T01:42:10;22.80;81.40
7562;DHT22;3822;48.784;9.174;2023-07-24T01:44:36;22.70;81.40
7562;DHT22;3822;48.784;9.174;2023-07-24T01:47:03;22.70;81.70
7562;DHT22;3822;48.784;9.174;2023-07-24T01:49:29;22.70;82.80
7562;DHT22;3822;48.784;9.174;2023-07-24T01:51:55;22.70;82.70
7562;DHT22;3822;48.784;9.174;2023-07-24T01:54:23;22.70;82.90
7562;DHT22;3822;48.784;9.174;2023-07-24T01:56:50;22.70;83.10
7562;DHT22;3822;48.784;9.174;2023-07-24T01:59:21;21.30;81.80
7562;DHT22;3822;48.784;9.174;2023-07-24T02:01:47;22.60;82.90
7562;DHT22;3822;48.784;9.174;2023-07-24T02:04:13;22.60;82.80
7562;DHT22;3822;48.784;9.174;2023-07-24T02:06:39;22.60;82.60
7562;DHT22;3822;48.784;9.174;2023-07-24T02:09:06;22.60;82.40
7562;DHT22;3822;48.784;9.174;2023-07-24T02:11:32;22.60;82.40
7562;DHT22;3822;48.784;9.174;2023-07-24T02:13:59;22.60;82.40
7562;DHT22;3822;48.784;9.174;2023-07-24T02:16:25;22.60;82.30
7562;DHT22;3822;48.784;9.174;2023-07-24T02:18:51;22.60;82.30
7562;DHT22;3822;48.784;9.174;2023-07-24T02:21:18;22.60;82.30
7562;DHT22;3822;48.784;9.174;2023-07-24T02:23:44;22.60;82.10
7562;DHT22;3822;48.784;9.174;2023-07-24T02:26:10;22.60;81.80
7562;DHT22;3822;48.784;9.174;2023-07-24T02:28:36;22.60;81.50
7562;DHT22;3822;48.784;9.174;2023-07-24T02:31:02;22.60;81.30
7562;DHT22;3822;48.784;9.174;2023-07-24T02:33:29;22.60;81.00
7562;DHT22;3822;48.784;9.174;2023-07-24T02:35:55;22.60;80.80
7562;DHT22;3822;48.784;9.174;2023-07-24T02:38:21;22.60;80.70
7562;DHT22;3822;48.784;9.174;2023-07-24T02:40:48;22.60;80.60
7562;DHT22;3822;48.784;9.174;2023-07-24T02:43:15;22.60;80.50
7562;DHT22;3822;48.784;9.174;2023-07-24T02:45:41;22.60;80.60
7562;DHT22;3822;48.784;9.174;2023-07-24T02:48:07;22.50;80.30
7562;DHT22;3822;48.784;9.174;2023-07-24T02:50:35;22.50;79.90
7562;DHT22;3822;48.784;9.174;2023-07-24T02:53:02;22.50;79.70
7562;DHT22;3822;48.784;9.174;2023-07-24T02:55:31;22.50;79.40
7562;DHT22;3822;48.784;9.174;2023-07-24T02:57:57;22.50;79.40
7562;DHT22;3822;48.784;9.174;2023-07-24T03:00:23;22.50;79.30
7562;DHT22;3822;48.784;9.174;2023-07-24T03:02:50;22.50;79.20
7562;DHT22;3822;48.784;9.174;2023-07-24T03:05:19;22.50;78.70
7562;DHT22;3822;48.784;9.174;2023-07-24T03:07:45;22.50;78.40
7562;DHT22;3822;48.784;9.174;2023-07-24T03:10:11;22.50;78.20
7562;DHT22;3822;48.784;9.174;2023-07-24T03:12:37;22.50;78.20
7562;DHT22;3822;48.784;9.174;2023-07-24T03:15:04;22.50;77.90
7562;DHT22;3822;48.784;9.174;2023-07-24T03:17:30;22.50;77.60
7562;DHT22;3822;48.784;9.174;2023-07-24T03:19:57;22.50;77.60
7562;DHT22;3822;48.784;9.174;2023-07-24T03:22:23;22.50;77.80
7562;DHT22;3822;48.784;9.174;2023-07-24T03:24:49;22.40;78.20
7562;DHT22;3822;48.784;9.174;2023-07-24T03:27:15;22.40;78.10
7562;DHT22;3822;48.784;9.174;2023-07-24T03:29:42;22.40;78.20
7562;DHT22;3822;48.784;9.174;2023-07-24T03:32:08;22.40;78.20
7562;DHT22;3822;48.784;9.174;2023-07-24T03:34:34;22.40;78.10
7562;DHT22;3822;48.784;9.174;2023-07-24T03:37:00;22.40;78.00
7562;DHT22;3822;48.784;9.174;2023-07-24T03:39:27;22.40;77.80
7562;DHT22;3822;48.784;9.174;2023-07-24T03:41:54;22.40;77.80
7562;DHT22;3822;48.784;9.174;2023-07-24T03:44:20;22.40;77.80
7562;DHT22;3822;48.784;9.174;2023-07-24T03:46:46;22.30;77.80
7562;DHT22;3822;48.784;9.174;2023-07-24T03:49:13;22.30;78.00
7562;DHT22;3822;48.784;9.174;2023-07-24T03:51:39;22.30;78.00
7562;DHT22;3822;48.784;9.174;2023-07-24T03:54:05;22.30;78.20
7562;DHT22;3822;48.784;9.174;2023-07-24T03:56:31;22.30;78.20
7562;DHT22;3822;48.784;9.174;2023-07-24T03:58:58;22.30;78.30
7562;DHT22;3822;48.784;9.174;2023-07-24T04:01:24;22.30;78.40
7562;DHT22;3822;48.784;9.174;2023-07-24T04:03:50;22.30;78.70
7562;DHT22;3822;48.784;9.174;2023-07-24T04:06:17;22.30;78.60
7562;DHT22;3822;48.784;9.174;2023-07-24T04:08:43;22.30;78.80
7562;DHT22;3822;48.784;9.174;2023-07-24T04:11:09;22.20;78.70
7562;DHT22;3822;48.784;9.174;2023-07-24T04:13:36;22.20;78.70
7562;DHT22;3822;48.784;9.174;2023-07-24T04:16:04;22.20;78.50
7562;DHT22;3822;48.784;9.174;2023-07-24T04:18:31;22.20;78.10
7562;DHT22;3822;48.784;9.174;2023-07-24T04:20:57;22.30;78.10
7562;DHT22;3822;48.784;9.174;2023-07-24T04:23:25;22.30;78.20
7562;DHT22;3822;48.784;9.174;2023-07-24T04:25:54;22.30;78.40
7562;DHT22;3822;48.784;9.174;2023-07-24T04:28:20;22.30;78.50
7562;DHT22;3822;48.784;9.174;2023-07-24T04:30:47;22.30;78.60
7562;DHT22;3822;48.784;9.174;2023-07-24T04:33:13;22.30;78.70
7562;DHT22;3822;48.784;9.174;2023-07-24T04:35:39;22.30;78.90
7562;DHT22;3822;48.784;9.174;2023-07-24T04:38:08;22.30;79.00
7562;DHT22;3822;48.784;9.174;2023-07-24T04:40:34;22.40;79.20
7562;DHT22;3822;48.784;9.174;2023-07-24T04:43:00;22.40;79.30
7562;DHT22;3822;48.784;9.174;2023-07-24T04:45:26;22.40;79.50
7562;DHT22;3822;48.784;9.174;2023-07-24T04:47:53;22.40;79.80
7562;DHT22;3822;48.784;9.174;2023-07-24T04:50:19;22.40;80.10
7562;DHT22;3822;48.784;9.174;2023-07-24T04:52:45;22.40;80.10
7562;DHT22;3822;48.784;9.174;2023-07-24T04:55:12;22.50;80.00
7562;DHT22;3822;48.784;9.174;2023-07-24T04:57:38;22.50;79.90
7562;DHT22;3822;48.784;9.174;2023-07-24T05:00:04;22.50;79.90
7562;DHT22;3822;48.784;9.174;2023-07-24T05:02:33;22.60;79.90
7562;DHT22;3822;48.784;9.174;2023-07-24T05:05:00;22.60;79.90
7562;DHT22;3822;48.784;9.174;2023-07-24T05:07:26;22.60;80.00
7562;DHT22;3822;48.784;9.174;2023-07-24T05:09:52;22.60;80.10
7562;DHT22;3822;48.784;9.174;2023-07-24T05:12:19;22.60;80.10
7562;DHT22;3822;48.784;9.174;2023-07-24T05:14:47;22.70;80.10
7562;DHT22;3822;48.784;9.174;2023-07-24T05:17:13;22.70;80.00
7562;DHT22;3822;48.784;9.174;2023-07-24T05:19:40;22.70;80.20
7562;DHT22;3822;48.784;9.174;2023-07-24T05:22:08;22.70;80.30
7562;DHT22;3822;48.784;9.174;2023-07-24T05:24:38;22.80;80.30
7562;DHT22;3822;48.784;9.174;2023-07-24T05:27:05;22.80;80.20
7562;DHT22;3822;48.784;9.174;2023-07-24T05:29:31;22.80;80.30
7562;DHT22;3822;48.784;9.174;2023-07-24T05:31:57;22.80;80.30
7562;DHT22;3822;48.784;9.174;2023-07-24T05:34:25;22.90;80.10
7562;DHT22;3822;48.784;9.174;2023-07-24T05:36:51;22.80;79.70
7562;DHT22;3822;48.784;9.174;2023-07-24T05:39:18;22.90;79.60
7562;DHT22;3822;48.784;9.174;2023-07-24T05:41:47;22.90;79.30
7562;DHT22;3822;48.784;9.174;2023-07-24T05:44:13;22.90;78.70
7562;DHT22;3822;48.784;9.174;2023-07-24T05:46:45;22.90;77.80
7562;DHT22;3822;48.784;9.174;2023-07-24T05:49:11;22.80;76.90
7562;DHT22;3822;48.784;9.174;2023-07-24T05:51:37;22.90;76.50
7562;DHT22;3822;48.784;9.174;2023-07-24T05:54:03;22.80;76.00
7562;DHT22;3822;48.784;9.174;2023-07-24T05:56:30;22.80;75.90
7562;DHT22;3822;48.784;9.174;2023-07-24T05:58:56;22.80;75.80
7562;DHT22;3822;48.784;9.174;2023-07-24T06:01:22;22.80;75.70
7562;DHT22;3822;48.784;9.174;2023-07-24T06:03:48;22.80;75.70
7562;DHT22;3822;48.784;9.174;2023-07-24T06:06:14;22.80;75.70
7562;DHT22;3822;48.784;9.174;2023-07-24T06:08:41;22.80;75.70
7562;DHT22;3822;48.784;9.174;2023-07-24T06:11:07;22.80;75.60
7562;DHT22;3822;48.784;9.174;2023-07-24T06:13:33;22.80;75.60
7562;DHT22;3822;48.784;9.174;2023-07-24T06:15:59;22.80;75.60
7562;DHT22;3822;48.784;9.174;2023-07-24T06:18:28;22.90;75.70
7562;DHT22;3822;48.784;9.174;2023-07-24T06:20:54;22.80;75.60
7562;DHT22;3822;48.784;9.174;2023-07-24T06:23:21;22.80;75.70
7562;DHT22;3822;48.784;9.174;2023-07-24T06:25:49;22.90;75.80
7562;DHT22;3822;48.784;9.174;2023-07-24T06:28:17;22.80;75.70
7562;DHT22;3822;48.784;9.174;2023-07-24T06:30:43;22.90;75.80
7562;DHT22;3822;48.784;9.174;2023-07-24T06:33:10;22.90;75.90
7562;DHT22;3822;48.784;9.174;2023-07-24T06:35:36;22.90;75.90
7562;DHT22;3822;48.784;9.174;2023-07-24T06:38:05;22.90;75.90
7562;DHT22;3822;48.784;9.174;2023-07-24T06:40:33;23.00;76.00
7562;DHT22;3822;48.784;9.174;2023-07-24T06:43:00;23.00;76.00
7562;DHT22;3822;48.784;9.174;2023-07-24T06:45:26;23.00;75.90
7562;DHT22;3822;48.784;9.174;2023-07-24T06:47:52;23.00;75.90
7562;DHT22;3822;48.784;9.174;2023-07-24T06:50:21;23.00;75.90
7562;DHT22;3822;48.784;9.174;2023-07-24T06:52:47;23.10;75.90
7562;DHT22;3822;48.784;9.174;2023-07-24T06:55:16;23.10;75.90
7562;DHT22;3822;48.784;9.174;2023-07-24T06:57:43;23.10;75.80
7562;DHT22;3822;48.784;9.174;2023-07-24T07:00:09;23.20;75.80
7562;DHT22;3822;48.784;9.174;2023-07-24T07:02:38;23.20;75.90
7562;DHT22;3822;48.784;9.174;2023-07-24T07:05:06;23.20;76.00
7562;DHT22;3822;48.784;9.174;2023-07-24T07:07:33;23.20;75.90
7562;DHT22;3822;48.784;9.174;2023-07-24T07:09:59;23.30;75.80
7562;DHT22;3822;48.784;9.174;2023-07-24T07:12:25;23.30;75.70
7562;DHT22;3822;48.784;9.174;2023-07-24T07:14:52;23.30;75.80
7562;DHT22;3822;48.784;9.174;2023-07-24T07:17:18;23.30;75.80
7562;DHT22;3822;48.784;9.174;2023-07-24T07:19:44;21.90;74.60
7562;DHT22;3822;48.784;9.174;2023-07-24T07:22:10;23.40;76.10
7562;DHT22;3822;48.784;9.174;2023-07-24T07:24:36;23.40;76.00
7562;DHT22;3822;48.784;9.174;2023-07-24T07:27:05;23.40;76.10
7562;DHT22;3822;48.784;9.174;2023-07-24T07:29:32;23.50;76.30
7562;DHT22;3822;48.784;9.174;2023-07-24T07:31:58;23.50;76.30
7562;DHT22;3822;48.784;9.174;2023-07-24T07:34:24;23.50;76.40
7562;DHT22;3822;48.784;9.174;2023-07-24T07:36:50;23.50;76.60
7562;DHT22;3822;48.784;9.174;2023-07-24T07:39:17;23.50;76.70
7562;DHT22;3822;48.784;9.174;2023-07-24T07:41:43;23.50;76.70
7562;DHT22;3822;48.784;9.174;2023-07-24T07:44:09;23.50;76.90
7562;DHT22;3822;48.784;9.174;2023-07-24T07:46:35;23.60;77.10
7562;DHT22;3822;48.784;9.174;2023-07-24T07:49:02;23.60;77.10
7562;DHT22;3822;48.784;9.174;2023-07-24T07:51:28;23.60;78.00
7562;DHT22;3822;48.784;9.174;2023-07-24T07:53:54;23.60;77.60
7562;DHT22;3822;48.784;9.174;2023-07-24T07:56:23;23.60;77.80
7562;DHT22;3822;48.784;9.174;2023-07-24T07:58:49;23.60;77.80
7562;DHT22;3822;48.784;9.174;2023-07-24T08:01:15;23.70;77.90
7562;DHT22;3822;48.784;9.174;2023-07-24T08:03:41;23.70;78.00
7562;DHT22;3822;48.784;9.174;2023-07-24T08:06:08;23.70;78.10
7562;DHT22;3822;48.784;9.174;2023-07-24T08:08:37;23.70;78.40
7562;DHT22;3822;48.784;9.174;2023-07-24T08:11:05;23.70;78.60
7562;DHT22;3822;48.784;9.174;2023-07-24T08:13:32;23.70;78.90
7562;DHT22;3822;48.784;9.174;2023-07-24T08:15:59;23.70;78.90
7562;DHT22;3822;48.784;9.174;2023-07-24T08:18:28;23.70;79.10
7562;DHT22;3822;48.784;9.174;2023-07-24T08:20:55;23.70;79.30
7562;DHT22;3822;48.784;9.174;2023-07-24T08:23:24;23.80;79.80
7562;DHT22;3822;48.784;9.174;2023-07-24T08:25:50;23.80;80.00
7562;DHT22;3822;48.784;9.174;2023-07-24T08:28:18;23.80;80.80
7562;DHT22;3822;48.784;9.174;2023-07-24T08:30:44;23.80;81.70
7562;DHT22;3822;48.784;9.174;2023-07-24T08:33:12;23.80;82.50
7562;DHT22;3822;48.784;9.174;2023-07-24T08:35:39;23.80;84.00
7562;DHT22;3822;48.784;9.174;2023-07-24T08:38:05;23.70;84.50
7562;DHT22;3822;48.784;9.174;2023-07-24T08:40:31;23.70;84.90
7562;DHT22;3822;48.784;9.174;2023-07-24T08:42:58;23.70;85.50
7562;DHT22;3822;48.784;9.174;2023-07-24T08:45:24;23.70;86.20
7562;DHT22;3822;48.784;9.174;2023-07-24T08:47:53;23.70;86.60
7562;DHT22;3822;48.784;9.174;2023-07-24T08:50:19;23.70;87.10
7562;DHT22;3822;48.784;9.174;2023-07-24T08:52:47;23.70;88.10
7562;DHT22;3822;48.784;9.174;2023-07-24T08:55:13;23.70;88.60
7562;DHT22;3822;48.784;9.174;2023-07-24T08:57:42;23.70;88.70
7562;DHT22;3822;48.784;9.174;2023-07-24T09:00:08;23.70;89.50
7562;DHT22;3822;48.784;9.174;2023-07-24T09:02:35;23.70;89.10
7562;DHT22;3822;48.784;9.174;2023-07-24T09:05:02;23.70;89.50
7562;DHT22;3822;48.784;9.174;2023-07-24T09:07:32;23.70;89.80
7562;DHT22;3822;48.784;9.174;2023-07-24T09:10:01;23.70;90.20
7562;DHT22;3822;48.784;9.174;2023-07-24T09:12:27;23.70;90.40
7562;DHT22;3822;48.784;9.174;2023-07-24T09:15:06;23.60;90.60
7562;DHT22;3822;48.784;9.174;2023-07-24T09:17:35;23.60;90.70
7562;DHT22;3822;48.784;9.174;2023-07-24T09:20:01;23.60;90.90
7562;DHT22;3822;48.784;9.174;2023-07-24T09:22:33;23.60;91.00
7562;DHT22;3822;48.784;9.174;2023-07-24T09:24:59;23.60;91.10
7562;DHT22;3822;48.784;9.174;2023-07-24T09:27:27;23.60;91.20
7562;DHT22;3822;48.784;9.174;2023-07-24T09:29:54;23.60;91.30
7562;DHT22;3822;48.784;9.174;2023-07-24T09:34:51;23.60;91.40
7562;DHT22;3822;48.784;9.174;2023-07-24T09:37:26;23.60;91.40
7562;DHT22;3822;48.784;9.174;2023-07-24T09:39:59;23.60;91.40
7562;DHT22;3822;48.784;9.174;2023-07-24T09:42:29;23.60;91.40
7562;DHT22;3822;48.784;9.174;2023-07-24T09:44:56;23.60;91.40
7562;DHT22;3822;48.784;9.174;2023-07-24T09:47:22;23.60;91.40
7562;DHT22;3822;48.784;9.174;2023-07-24T09:49:48;23.60;91.40
7562;DHT22;3822;48.784;9.174;2023-07-24T09:52:21;23.50;91.60
7562;DHT22;3822;48.784;9.174;2023-07-24T09:57:53;23.50;92.00
7562;DHT22;3822;48.784;9.174;2023-07-24T10:00:20;23.50;92.40
7562;DHT22;3822;48.784;9.174;2023-07-24T10:02:49;23.50;92.50
7562;DHT22;3822;48.784;9.174;2023-07-24T10:05:18;23.40;92.50
7562;DHT22;3822;48.784;9.174;2023-07-24T10:07:44;23.40;92.50
7562;DHT22;3822;48.784;9.174;2023-07-24T10:10:11;23.40;92.60
7562;DHT22;3822;48.784;9.174;2023-07-24T10:12:37;23.40;92.70
7562;DHT22;3822;48.784;9.174;2023-07-24T10:15:05;23.40;92.80
7562;DHT22;3822;48.784;9.174;2023-07-24T10:17:35;23.30;92.90
7562;DHT22;3822;48.784;9.174;2023-07-24T10:20:06;23.30;92.90
7562;DHT22;3822;48.784;9.174;2023-07-24T10:22:40;23.30;93.00
7562;DHT22;3822;48.784;9.174;2023-07-24T10:25:08;23.30;93.10
7562;DHT22;3822;48.784;9.174;2023-07-24T10:27:46;23.30;93.10
7562;DHT22;3822;48.784;9.174;2023-07-24T10:30:12;23.30;93.20
7562;DHT22;3822;48.784;9.174;2023-07-24T10:32:46;23.30;93.50
7562;DHT22;3822;48.784;9.174;2023-07-24T10:35:13;23.20;93.60
7562;DHT22;3822;48.784;9.174;2023-07-24T10:37:39;23.20;93.70
7562;DHT22;3822;48.784;9.174;2023-07-24T10:40:06;23.20;93.80
7562;DHT22;3822;48.784;9.174;2023-07-24T10:42:33;23.20;94.00
7562;DHT22;3822;48.784;9.174;2023-07-24T10:45:06;23.10;94.20
7562;DHT22;3822;48.784;9.174;2023-07-24T10:47:33;23.10;94.40
7562;DHT22;3822;48.784;9.174;2023-07-24T10:50:00;23.10;94.50
7562;DHT22;3822;48.784;9.174;2023-07-24T10:52:32;23.10;94.60
7562;DHT22;3822;48.784;9.174;2023-07-24T10:55:02;23.10;94.70
7562;DHT22;3822;48.784;9.174;2023-07-24T10:57:31;23.00;94.90
7562;DHT22;3822;48.784;9.174;2023-07-24T10:59:59;23.00;95.10
7562;DHT22;3822;48.784;9.174;2023-07-24T11:02:25;23.00;95.20
7562;DHT22;3822;48.784;9.174;2023-07-24T11:04:51;23.00;95.40
7562;DHT22;3822;48.784;9.174;2023-07-24T11:07:18;23.00;95.60
7562;DHT22;3822;48.784;9.174;2023-07-24T11:09:44;22.90;95.60
7562;DHT22;3822;48.784;9.174;2023-07-24T11:12:12;22.90;95.90
7562;DHT22;3822;48.784;9.174;2023-07-24T11:14:46;22.90;96.00
7562;DHT22;3822;48.784;9.174;2023-07-24T11:17:15;22.90;96.10
7562;DHT22;3822;48.784;9.174;2023-07-24T11:19:41;22.90;96.20
7562;DHT22;3822;48.784;9.174;2023-07-24T11:22:08;22.90;96.60
7562;DHT22;3822;48.784;9.174;2023-07-24T11:24:41;22.90;96.30
7562;DHT22;3822;48.784;9.174;2023-07-24T11:27:10;22.80;96.40
7562;DHT22;3822;48.784;9.174;2023-07-24T11:29:41;22.80;96.60
7562;DHT22;3822;48.784;9.174;2023-07-24T11:32:12;22.80;96.30
7562;DHT22;3822;48.784;9.174;2023-07-24T11:34:38;22.70;96.30
7562;DHT22;3822;48.784;9.174;2023-07-24T11:37:07;22.70;96.30
7562;DHT22;3822;48.784;9.174;2023-07-24T11:39:34;22.70;96.20
7562;DHT22;3822;48.784;9.174;2023-07-24T11:42:00;22.70;96.30
7562;DHT22;3822;48.784;9.174;2023-07-24T11:44:30;22.70;96.40
7562;DHT22;3822;48.784;9.174;2023-07-24T11:47:03;22.80;96.60
7562;DHT22;3822;48.784;9.174;2023-07-24T11:49:34;22.80;96.60
7562;DHT22;3822;48.784;9.174;2023-07-24T11:52:05;22.90;96.80
7562;DHT22;3822;48.784;9.174;2023-07-24T11:54:35;23.00;97.00
7562;DHT22;3822;48.784;9.174;2023-07-24T11:57:01;23.00;96.90
7562;DHT22;3822;48.784;9.174;2023-07-24T11:59:27;23.00;97.10
7562;DHT22;3822;48.784;9.174;2023-07-24T12:01:55;23.00;96.90
7562;DHT22;3822;48.784;9.174;2023-07-24T12:04:21;23.00;96.80
7562;DHT22;3822;48.784;9.174;2023-07-24T12:06:47;24.40;97.50
7562;DHT22;3822;48.784;9.174;2023-07-24T12:09:14;22.90;96.90
7562;DHT22;3822;48.784;9.174;2023-07-24T12:11:40;22.90;96.80
7562;DHT22;3822;48.784;9.174;2023-07-24T12:14:08;22.80;96.70
7562;DHT22;3822;48.784;9.174;2023-07-24T12:16:36;22.80;96.70
7562;DHT22;3822;48.784;9.174;2023-07-24T12:19:03;22.80;96.70
7562;DHT22;3822;48.784;9.174;2023-07-24T12:21:29;22.90;96.80
7562;DHT22;3822;48.784;9.174;2023-07-24T12:23:55;22.90;96.90
7562;DHT22;3822;48.784;9.174;2023-07-24T12:26:22;22.90;96.90
7562;DHT22;3822;48.784;9.174;2023-07-24T12:28:51;22.90;96.90
7562;DHT22;3822;48.784;9.174;2023-07-24T12:31:17;22.90;97.00
7562;DHT22;3822;48.784;9.174;2023-07-24T12:33:43;22.90;96.90
7562;DHT22;3822;48.784;9.174;2023-07-24T12:36:09;22.90;96.90
7562;DHT22;3822;48.784;9.174;2023-07-24T12:38:38;22.90;96.90
7562;DHT22;3822;48.784;9.174;2023-07-24T12:41:05;23.00;96.90
7562;DHT22;3822;48.784;9.174;2023-07-24T12:43:31;23.00;96.80
7562;DHT22;3822;48.784;9.174;2023-07-24T12:45:57;23.00;96.70
7562;DHT22;3822;48.784;9.174;2023-07-24T12:48:23;23.00;96.70
7562;DHT22;3822;48.784;9.174;2023-07-24T12:50:50;23.10;96.70
7562;DHT22;3822;48.784;9.174;2023-07-24T12:53:17;23.10;96.70
7562;DHT22;3822;48.784;9.174;2023-07-24T12:55:45;23.20;96.70
7562;DHT22;3822;48.784;9.174;2023-07-24T12:58:12;23.20;96.60
7562;DHT22;3822;48.784;9.174;2023-07-24T13:00:40;23.30;96.50
7562;DHT22;3822;48.784;9.174;2023-07-24T13:03:09;23.40;96.40
7562;DHT22;3822;48.784;9.174;2023-07-24T13:05:36;23.50;96.30
7562;DHT22;3822;48.784;9.174;2023-07-24T13:08:06;23.50;96.10
7562;DHT22;3822;48.784;9.174;2023-07-24T13:10:32;23.60;96.10
7562;DHT22;3822;48.784;9.174;2023-07-24T13:12:58;23.70;96.00
7562;DHT22;3822;48.784;9.174;2023-07-24T13:15:27;23.80;95.80
7562;DHT22;3822;48.784;9.174;2023-07-24T13:17:55;23.90;95.70
7562;DHT22;3822;48.784;9.174;2023-07-24T13:20:21;24.00;95.60
7562;DHT22;3822;48.784;9.174;2023-07-24T13:22:48;24.00;95.40
7562;DHT22;3822;48.784;9.174;2023-07-24T13:25:14;24.20;95.40
7562;DHT22;3822;48.784;9.174;2023-07-24T13:27:43;24.20;95.20
7562;DHT22;3822;48.784;9.174;2023-07-24T13:30:11;23.40;94.70
7562;DHT22;3822;48.784;9.174;2023-07-24T13:32:38;24.50;95.10
7562;DHT22;3822;48.784;9.174;2023-07-24T13:35:04;24.60;94.80
7562;DHT22;3822;48.784;9.174;2023-07-24T13:37:30;24.70;94.30
7562;DHT22;3822;48.784;9.174;2023-07-24T13:39:57;24.80;94.10
7562;DHT22;3822;48.784;9.174;2023-07-24T13:42:23;24.80;93.60
7562;DHT22;3822;48.784;9.174;2023-07-24T13:44:49;24.90;93.40
7562;DHT22;3822;48.784;9.174;2023-07-24T13:47:16;25.00;93.10
7562;DHT22;3822;48.784;9.174;2023-07-24T13:49:43;25.00;92.70
7562;DHT22;3822;48.784;9.174;2023-07-24T13:52:09;25.10;92.30
7562;DHT22;3822;48.784;9.174;2023-07-24T13:54:44;25.10;91.50
7562;DHT22;3822;48.784;9.174;2023-07-24T13:57:12;25.10;91.10
7562;DHT22;3822;48.784;9.174;2023-07-24T13:59:39;25.20;90.70
7562;DHT22;3822;48.784;9.174;2023-07-24T14:02:06;25.30;90.50
7562;DHT22;3822;48.784;9.174;2023-07-24T14:04:32;25.30;90.30
7562;DHT22;3822;48.784;9.174;2023-07-24T14:06:58;25.50;90.30
7562;DHT22;3822;48.784;9.174;2023-07-24T14:09:25;25.60;90.10
7562;DHT22;3822;48.784;9.174;2023-07-24T14:11:54;25.70;89.30
7562;DHT22;3822;48.784;9.174;2023-07-24T14:14:20;25.90;88.50
7562;DHT22;3822;48.784;9.174;2023-07-24T14:16:47;26.00;86.70
7562;DHT22;3822;48.784;9.174;2023-07-24T14:19:13;26.10;84.90
7562;DHT22;3822;48.784;9.174;2023-07-24T14:21:39;26.20;84.80
7562;DHT22;3822;48.784;9.174;2023-07-24T14:24:05;26.30;84.50
7562;DHT22;3822;48.784;9.174;2023-07-24T14:26:32;26.40;84.20
7562;DHT22;3822;48.784;9.174;2023-07-24T14:28:58;26.50;83.90
7562;DHT22;3822;48.784;9.174;2023-07-24T14:31:24;26.50;83.30
7562;DHT22;3822;48.784;9.174;2023-07-24T14:33:51;26.60;82.50
7562;DHT22;3822;48.784;9.174;2023-07-24T14:36:17;26.60;82.10
7562;DHT22;3822;48.784;9.174;2023-07-24T14:38:43;26.60;81.40
7562;DHT22;3822;48.784;9.174;2023-07-24T14:41:10;26.60;80.90
7562;DHT22;3822;48.784;9.174;2023-07-24T14:43:41;26.60;80.70
7562;DHT22;3822;48.784;9.174;2023-07-24T14:46:10;26.70;80.30
7562;DHT22;3822;48.784;9.174;2023-07-24T14:48:36;26.80;80.30
7562;DHT22;3822;48.784;9.174;2023-07-24T14:51:03;26.80;79.60
7562;DHT22;3822;48.784;9.174;2023-07-24T14:53:29;26.90;79.20
7562;DHT22;3822;48.784;9.174;2023-07-24T14:55:58;27.00;77.90
7562;DHT22;3822;48.784;9.174;2023-07-24T14:58:24;27.00;77.00
7562;DHT22;3822;48.784;9.174;2023-07-24T15:00:50;27.00;76.20
7562;DHT22;3822;48.784;9.174;2023-07-24T15:03:17;27.00;76.50
7562;DHT22;3822;48.784;9.174;2023-07-24T15:05:43;26.90;76.30
7562;DHT22;3822;48.784;9.174;2023-07-24T15:08:09;26.90;76.50
7562;DHT22;3822;48.784;9.174;2023-07-24T15:10:35;26.90;76.80
7562;DHT22;3822;48.784;9.174;2023-07-24T15:13:01;26.90;77.00
7562;DHT22;3822;48.784;9.174;2023-07-24T15:15:28;27.00;77.70
7562;DHT22;3822;48.784;9.174;2023-07-24T15:17:55;27.10;77.50
7562;DHT22;3822;48.784;9.174;2023-07-24T15:20:22;27.20;76.80
7562;DHT22;3822;48.784;9.174;2023-07-24T15:22:49;27.20;76.10
7562;DHT22;3822;48.784;9.174;2023-07-24T15:25:15;27.20;76.00
7562;DHT22;3822;48.784;9.174;2023-07-24T15:27:41;27.30;76.40
7562;DHT22;3822;48.784;9.174;2023-07-24T15:30:07;27.20;76.50
7562;DHT22;3822;48.784;9.174;2023-07-24T15:32:34;27.20;76.80
7562;DHT22;3822;48.784;9.174;2023-07-24T15:35:00;27.10;76.90
7562;DHT22;3822;48.784;9.174;2023-07-24T15:37:26;27.00;77.40
7562;DHT22;3822;48.784;9.174;2023-07-24T15:39:55;26.90;77.70
7562;DHT22;3822;48.784;9.174;2023-07-24T15:42:24;26.90;77.90
7562;DHT22;3822;48.784;9.174;2023-07-24T15:44:51;26.70;78.10
7562;DHT22;3822;48.784;9.174;2023-07-24T15:47:18;26.60;78.30
7562;DHT22;3822;48.784;9.174;2023-07-24T15:49:44;26.60;78.90
7562;DHT22;3822;48.784;9.174;2023-07-24T15:52:11;26.50;79.40
7562;DHT22;3822;48.784;9.174;2023-07-24T15:54:39;26.40;79.90
7562;DHT22;3822;48.784;9.174;2023-07-24T15:57:06;26.30;80.60
7562;DHT22;3822;48.784;9.174;2023-07-24T15:59:33;26.20;81.00
7562;DHT22;3822;48.784;9.174;2023-07-24T16:01:59;26.20;81.30
7562;DHT22;3822;48.784;9.174;2023-07-24T16:04:25;26.10;81.80
7562;DHT22;3822;48.784;9.174;2023-07-24T16:06:52;26.00;82.30
7562;DHT22;3822;48.784;9.174;2023-07-24T16:09:18;26.00;82.60
7562;DHT22;3822;48.784;9.174;2023-07-24T16:11:44;26.00;82.90
7562;DHT22;3822;48.784;9.174;2023-07-24T16:14:11;25.90;82.90